Wetterdaten: Donnerstag, 06.11.2014
Datum Zeit Temp. A. Mod.Schuppen Waschkche Feuchte A. Luftdruck Regen Wind Richtung Richtung Sonnenschein Helligkeit Solar
06.11.2014 00:04 8,1 C 7,0 C 12,8 C 88 % 1007,0 hPa 0,0 l/m 5,8 km/h (2 Bft) SW22.5 225 0 min 0 lux 0 W/m
06.11.2014 00:09 8,1 C 6,9 C 12,7 C 88 % 1007,0 hPa 0,0 l/m 8,5 km/h (2 Bft) SW22.5 225 0 min 0 lux 0 W/m
06.11.2014 00:14 8,0 C 6,8 C 12,7 C 87 % 1007,0 hPa 0,0 l/m 8,5 km/h (2 Bft) SW22.5 225 0 min 0 lux 0 W/m
06.11.2014 00:19 8,0 C 6,8 C 12,7 C 87 % 1007,0 hPa 0,0 l/m 9,9 km/h (2 Bft) SW22.5 230 0 min 0 lux 0 W/m
06.11.2014 00:24 8,0 C 6,6 C 12,6 C 86 % 1007,0 hPa 0,0 l/m 9,9 km/h (2 Bft) SW22.5 230 0 min 0 lux 0 W/m
06.11.2014 00:30 7,8 C 6,4 C 12,6 C 86 % 1007,0 hPa 0,0 l/m 9,9 km/h (2 Bft) SW22.5 230 0 min 0 lux 0 W/m
06.11.2014 00:34 7,8 C 6,0 C 12,6 C 86 % 1007,0 hPa 0,0 l/m 7,6 km/h (2 Bft) SW22.5 225 0 min 0 lux 0 W/m
06.11.2014 00:39 7,7 C 5,8 C 12,6 C 85 % 1007,0 hPa 0,0 l/m 5,0 km/h (1 Bft) SW 230 0 min 0 lux 0 W/m
06.11.2014 00:44 7,6 C 5,5 C 12,5 C 85 % 1007,0 hPa 0,0 l/m 5,0 km/h (1 Bft) SW 230 0 min 0 lux 0 W/m
06.11.2014 00:49 7,4 C 5,2 C 12,5 C 86 % 1007,0 hPa 0,0 l/m 4,5 km/h (1 Bft) SW 230 0 min 0 lux 0 W/m
06.11.2014 00:54 7,3 C 5,0 C 12,5 C 86 % 1007,0 hPa 0,0 l/m 4,2 km/h (1 Bft) SW 230 0 min 0 lux 0 W/m
06.11.2014 00:59 7,2 C 4,7 C 12,5 C 86 % 1007,0 hPa 0,0 l/m 4,2 km/h (1 Bft) SW 230 0 min 0 lux 0 W/m
06.11.2014 01:04 7,2 C 4,2 C 12,5 C 86 % 1007,0 hPa 0,0 l/m 0,1 km/h (0 Bft) SW 230 0 min 0 lux 0 W/m
06.11.2014 01:09 7,2 C 4,1 C 12,5 C 86 % 1007,0 hPa 0,0 l/m 0,0 km/h (0 Bft) SW 225 0 min 0 lux 0 W/m
06.11.2014 01:14 6,9 C 3,6 C 12,4 C 86 % 1007,0 hPa 0,0 l/m 0,0 km/h (0 Bft) SW 225 0 min 0 lux 0 W/m
06.11.2014 01:19 6,7 C 3,2 C 12,4 C 86 % 1008,0 hPa 0,0 l/m 0,0 km/h (0 Bft) SW 225 0 min 0 lux 0 W/m
06.11.2014 01:24 6,6 C 3,0 C 12,4 C 86 % 1008,0 hPa 0,0 l/m 0,0 km/h (0 Bft) SW 225 0 min 0 lux 0 W/m
06.11.2014 01:29 6,6 C 2,9 C 12,4 C 86 % 1008,0 hPa 0,0 l/m 0,0 km/h (0 Bft) S 185 0 min 0 lux 0 W/m
06.11.2014 01:34 6,5 C 2,8 C 12,4 C 87 % 1008,0 hPa 0,0 l/m 0,0 km/h (0 Bft) S 185 0 min 0 lux 0 W/m
06.11.2014 01:40 6,5 C 2,5 C 12,4 C 86 % 1008,0 hPa 0,0 l/m 0,0 km/h (0 Bft) S 185 0 min 0 lux 0 W/m
06.11.2014 01:44 6,4 C 2,5 C 12,4 C 87 % 1008,0 hPa 0,0 l/m 0,0 km/h (0 Bft) S 185 0 min 0 lux 0 W/m
06.11.2014 01:49 6,2 C 2,4 C 12,4 C 86 % 1008,0 hPa 0,0 l/m 0,0 km/h (0 Bft) S 180 0 min 0 lux 0 W/m
06.11.2014 01:54 6,3 C 2,6 C 12,3 C 86 % 1008,0 hPa 0,0 l/m 0,0 km/h (0 Bft) S 180 0 min 0 lux 0 W/m
06.11.2014 01:59 6,3 C 2,7 C 12,3 C 86 % 1008,0 hPa 0,0 l/m 0,0 km/h (0 Bft) S 180 0 min 0 lux 0 W/m
06.11.2014 02:04 6,2 C 2,6 C 12,3 C 86 % 1008,0 hPa 0,0 l/m 0,0 km/h (0 Bft) S 180 0 min 0 lux 0 W/m
06.11.2014 02:10 6,1 C 2,3 C 12,3 C 86 % 1008,0 hPa 0,0 l/m 0,0 km/h (0 Bft) S 180 0 min 0 lux 0 W/m
06.11.2014 02:14 6,0 C 2,0 C 12,3 C 86 % 1008,0 hPa 0,0 l/m 0,0 km/h (0 Bft) S 180 0 min 0 lux 0 W/m
06.11.2014 02:19 5,9 C 1,9 C 12,3 C 87 % 1008,0 hPa 0,0 l/m 0,0 km/h (0 Bft) S 180 0 min 0 lux 0 W/m
06.11.2014 02:24 5,8 C 1,8 C 12,3 C 87 % 1008,0 hPa 0,0 l/m 0,0 km/h (0 Bft) S 180 0 min 0 lux 0 W/m
06.11.2014 02:29 5,8 C 1,8 C 12,3 C 87 % 1008,0 hPa 0,0 l/m 0,0 km/h (0 Bft) S 180 0 min 0 lux 0 W/m
06.11.2014 02:34 5,7 C 1,9 C 12,3 C 87 % 1008,1 hPa 0,0 l/m 0,0 km/h (0 Bft) S 180 0 min 0 lux 0 W/m
06.11.2014 02:39 5,7 C 1,9 C 12,3 C 87 % 1008,1 hPa 0,0 l/m 0,0 km/h (0 Bft) S 175 0 min 0 lux 0 W/m
06.11.2014 02:45 5,6 C 1,7 C 12,3 C 87 % 1008,1 hPa 0,0 l/m 0,0 km/h (0 Bft) S 180 0 min 0 lux 0 W/m
06.11.2014 02:49 5,6 C 1,6 C 12,2 C 87 % 1008,1 hPa 0,0 l/m 0,0 km/h (0 Bft) S 180 0 min 0 lux 0 W/m
06.11.2014 02:54 5,6 C 1,5 C 12,3 C 87 % 1008,1 hPa 0,0 l/m 0,0 km/h (0 Bft) S 175 0 min 0 lux 0 W/m
06.11.2014 02:59 5,6 C 1,6 C 12,2 C 87 % 1008,1 hPa 0,0 l/m 4,2 km/h (1 Bft) S 175 0 min 0 lux 0 W/m
06.11.2014 03:04 5,6 C 1,7 C 12,2 C 87 % 1008,1 hPa 0,0 l/m 0,1 km/h (0 Bft) S 175 0 min 0 lux 0 W/m
06.11.2014 03:09 5,6 C 1,7 C 12,2 C 87 % 1008,1 hPa 0,0 l/m 0,1 km/h (0 Bft) S 175 0 min 0 lux 0 W/m
06.11.2014 03:14 5,5 C 1,6 C 12,2 C 87 % 1008,1 hPa 0,0 l/m 0,0 km/h (0 Bft) S 175 0 min 0 lux 0 W/m
06.11.2014 03:19 5,4 C 1,5 C 12,2 C 87 % 1008,1 hPa 0,0 l/m 0,0 km/h (0 Bft) S 175 0 min 0 lux 0 W/m
06.11.2014 03:24 5,3 C 1,4 C 12,2 C 87 % 1008,1 hPa 0,0 l/m 0,0 km/h (0 Bft) S 175 0 min 0 lux 0 W/m
06.11.2014 03:29 5,2 C 1,3 C 12,2 C 87 % 1008,1 hPa 0,0 l/m 0,0 km/h (0 Bft) S 175 0 min 0 lux 0 W/m
06.11.2014 03:34 5,2 C 1,3 C 12,1 C 87 % 1008,1 hPa 0,0 l/m 0,0 km/h (0 Bft) S 175 0 min 0 lux 0 W/m
06.11.2014 03:40 5,2 C 1,2 C 12,1 C 87 % 1008,1 hPa 0,0 l/m 0,0 km/h (0 Bft) S 175 0 min 0 lux 0 W/m
06.11.2014 03:44 5,2 C 1,4 C 12,1 C 87 % 1008,1 hPa 0,0 l/m 0,0 km/h (0 Bft) S 175 0 min 0 lux 0 W/m
06.11.2014 03:49 5,2 C 1,7 C 12,1 C 88 % 1008,1 hPa 0,0 l/m 0,0 km/h (0 Bft) S 175 0 min 0 lux 0 W/m
06.11.2014 03:54 5,2 C 1,6 C 12,1 C 88 % 1008,1 hPa 0,0 l/m 0,0 km/h (0 Bft) S 175 0 min 0 lux 0 W/m
06.11.2014 03:59 5,2 C 1,4 C 12,0 C 88 % 1008,1 hPa 0,0 l/m 0,0 km/h (0 Bft) S 175 0 min 0 lux 0 W/m
06.11.2014 04:05 5,1 C 1,4 C 12,0 C 88 % 1008,1 hPa 0,0 l/m 0,0 km/h (0 Bft) S 175 0 min 0 lux 0 W/m
06.11.2014 04:09 4,9 C 1,6 C 12,0 C 88 % 1008,1 hPa 0,0 l/m 0,0 km/h (0 Bft) S 175 0 min 0 lux 0 W/m
06.11.2014 04:14 4,9 C 1,5 C 12,0 C 88 % 1008,1 hPa 0,0 l/m 0,0 km/h (0 Bft) S 175 0 min 0 lux 0 W/m
06.11.2014 04:19 4,9 C 1,4 C 12,0 C 88 % 1008,1 hPa 0,0 l/m 0,0 km/h (0 Bft) S 175 0 min 0 lux 0 W/m
06.11.2014 04:24 4,9 C 1,4 C 12,0 C 88 % 1008,1 hPa 0,0 l/m 0,0 km/h (0 Bft) S 175 0 min 0 lux 0 W/m
06.11.2014 04:30 4,9 C 1,6 C 12,0 C 89 % 1008,1 hPa 0,0 l/m 0,0 km/h (0 Bft) S 175 0 min 0 lux 0 W/m
06.11.2014 04:35 5,2 C 2,1 C 12,0 C 89 % 1008,1 hPa 0,0 l/m 0,0 km/h (0 Bft) S 175 0 min 0 lux 0 W/m
06.11.2014 04:39 5,3 C 2,9 C 11,9 C 89 % 1008,1 hPa 0,0 l/m 0,0 km/h (0 Bft) S 175 0 min 0 lux 0 W/m
06.11.2014 04:44 5,4 C 3,3 C 11,9 C 89 % 1008,1 hPa 0,0 l/m 0,0 km/h (0 Bft) S 175 0 min 0 lux 0 W/m
06.11.2014 04:49 5,5 C 3,4 C 11,9 C 89 % 1009,1 hPa 0,0 l/m 0,0 km/h (0 Bft) S 175 0 min 0 lux 0 W/m
06.11.2014 04:54 5,5 C 3,6 C 11,9 C 89 % 1009,1 hPa 0,0 l/m 0,0 km/h (0 Bft) S 175 0 min 0 lux 0 W/m
06.11.2014 04:55 5,5 C 3,6 C 11,9 C 89 % 1009,1 hPa 0,0 l/m 0,0 km/h (0 Bft) S 175 0 min 0 lux 0 W/m
06.11.2014 04:59 5,6 C 3,9 C 11,9 C 89 % 1009,1 hPa 0,0 l/m 0,0 km/h (0 Bft) S 175 0 min 0 lux 0 W/m
06.11.2014 05:04 5,7 C 3,9 C 11,9 C 89 % 1009,1 hPa 0,0 l/m 0,0 km/h (0 Bft) S 175 0 min 0 lux 0 W/m
06.11.2014 05:09 5,7 C 4,2 C 11,9 C 89 % 1009,1 hPa 0,0 l/m 0,0 km/h (0 Bft) S 175 0 min 0 lux 0 W/m
06.11.2014 05:15 5,8 C 4,6 C 11,9 C 89 % 1009,1 hPa 0,0 l/m 0,0 km/h (0 Bft) S 175 0 min 0 lux 0 W/m
06.11.2014 05:20 5,9 C 4,7 C 11,9 C 89 % 1009,1 hPa 0,0 l/m 0,0 km/h (0 Bft) S 175 0 min 0 lux 0 W/m
06.11.2014 05:24 6,0 C 5,0 C 11,9 C 89 % 1009,1 hPa 0,0 l/m 0,0 km/h (0 Bft) S 175 0 min 0 lux 0 W/m
06.11.2014 05:29 6,0 C 5,2 C 11,9 C 89 % 1009,1 hPa 0,0 l/m 0,0 km/h (0 Bft) S 175 0 min 0 lux 0 W/m
06.11.2014 05:34 6,2 C 5,2 C 11,9 C 89 % 1009,0 hPa 0,0 l/m 0,0 km/h (0 Bft) S 175 0 min 0 lux 0 W/m
06.11.2014 05:39 6,3 C 5,4 C 11,9 C 89 % 1009,0 hPa 0,0 l/m 0,0 km/h (0 Bft) S 175 0 min 0 lux 0 W/m
06.11.2014 05:45 6,4 C 5,5 C 11,9 C 89 % 1009,0 hPa 0,0 l/m 0,0 km/h (0 Bft) S 175 0 min 0 lux 0 W/m
06.11.2014 05:49 6,4 C 5,6 C 11,9 C 89 % 1009,0 hPa 0,0 l/m 0,0 km/h (0 Bft) S 175 0 min 0 lux 0 W/m
06.11.2014 05:54 6,4 C 5,6 C 11,9 C 89 % 1009,0 hPa 0,0 l/m 0,0 km/h (0 Bft) S 175 0 min 0 lux 0 W/m
06.11.2014 05:59 6,5 C 5,6 C 11,9 C 89 % 1009,0 hPa 0,0 l/m 0,0 km/h (0 Bft) S 175 0 min 0 lux 0 W/m
06.11.2014 06:05 6,5 C 5,7 C 11,9 C 89 % 1009,0 hPa 0,0 l/m 0,0 km/h (0 Bft) S22.5 170 0 min 0 lux 0 W/m
06.11.2014 06:10 6,6 C 5,7 C 11,9 C 89 % 1009,0 hPa 0,0 l/m 0,0 km/h (0 Bft) S22.5 170 0 min 0 lux 0 W/m
06.11.2014 06:14 6,6 C 5,7 C 11,9 C 89 % 1009,0 hPa 0,0 l/m 0,0 km/h (0 Bft) SO 125 0 min 0 lux 0 W/m
06.11.2014 06:19 6,6 C 5,5 C 11,9 C 89 % 1009,0 hPa 0,0 l/m 0,0 km/h (0 Bft) SO 125 0 min 0 lux 0 W/m
06.11.2014 06:24 6,6 C 5,2 C 11,9 C 89 % 1009,0 hPa 0,0 l/m 0,0 km/h (0 Bft) SO 125 0 min 0 lux 0 W/m
06.11.2014 06:29 6,6 C 5,1 C 11,9 C 89 % 1009,0 hPa 0,0 l/m 0,0 km/h (0 Bft) SO 125 0 min 0 lux 0 W/m
06.11.2014 06:35 6,6 C 4,9 C 11,9 C 89 % 1009,0 hPa 0,0 l/m 0,0 km/h (0 Bft) SO 125 0 min 0 lux 0 W/m
06.11.2014 06:40 6,5 C 4,9 C 11,9 C 89 % 1009,0 hPa 0,0 l/m 0,0 km/h (0 Bft) SO 125 0 min 0 lux 0 W/m
06.11.2014 06:44 6,5 C 4,9 C 11,9 C 89 % 1009,0 hPa 0,0 l/m 0,0 km/h (0 Bft) SO 125 0 min 0 lux 0 W/m
06.11.2014 06:49 6,5 C 5,1 C 11,9 C 89 % 1009,0 hPa 0,0 l/m 0,0 km/h (0 Bft) SO 125 0 min 0 lux 0 W/m
06.11.2014 06:54 6,5 C 5,3 C 11,9 C 89 % 1009,0 hPa 0,0 l/m 0,0 km/h (0 Bft) SO 125 0 min 0 lux 0 W/m
06.11.2014 06:55 6,5 C 5,3 C 11,9 C 89 % 1009,0 hPa 0,0 l/m 0,0 km/h (0 Bft) SO 125 0 min 0 lux 0 W/m
06.11.2014 07:00 6,6 C 5,4 C 11,9 C 89 % 1009,0 hPa 0,0 l/m 0,0 km/h (0 Bft) SO 125 0 min 0 lux 0 W/m
06.11.2014 07:05 6,7 C 5,3 C 11,9 C 89 % 1009,0 hPa 0,0 l/m 0,0 km/h (0 Bft) SO 125 0 min 0 lux 0 W/m
06.11.2014 07:10 6,7 C 4,9 C 11,9 C 90 % 1009,0 hPa 0,0 l/m 0,0 km/h (0 Bft) SO 125 0 min 0 lux 0 W/m
06.11.2014 07:14 6,6 C 4,4 C 11,9 C 89 % 1009,0 hPa 0,0 l/m 0,0 km/h (0 Bft) SO 125 0 min 0 lux 0 W/m
06.11.2014 07:20 6,6 C 4,4 C 11,9 C 89 % 1009,0 hPa 0,0 l/m 0,0 km/h (0 Bft) SO 125 0 min 32 lux 0 W/m
06.11.2014 07:25 6,6 C 4,4 C 11,9 C 89 % 1009,0 hPa 0,0 l/m 0,0 km/h (0 Bft) SO 125 0 min 68 lux 0 W/m
06.11.2014 07:29 6,5 C 4,6 C 11,9 C 89 % 1009,0 hPa 0,0 l/m 0,0 km/h (0 Bft) SO 125 0 min 121 lux 0 W/m
06.11.2014 07:34 6,6 C 4,8 C 11,9 C 89 % 1009,0 hPa 0,0 l/m 0,0 km/h (0 Bft) SO 125 0 min 121 lux 0 W/m
06.11.2014 07:39 6,6 C 5,1 C 11,9 C 89 % 1010,0 hPa 0,0 l/m 0,0 km/h (0 Bft) SO 135 0 min 165 lux 0 W/m
06.11.2014 07:44 6,6 C 5,3 C 11,9 C 89 % 1010,0 hPa 0,0 l/m 0,0 km/h (0 Bft) SO 135 0 min 206 lux 1 W/m
06.11.2014 07:50 6,7 C 5,4 C 11,9 C 89 % 1010,0 hPa 0,0 l/m 0,0 km/h (0 Bft) SO 135 0 min 170 lux 1 W/m
06.11.2014 07:54 6,8 C 5,7 C 11,9 C 89 % 1010,0 hPa 0,0 l/m 0,0 km/h (0 Bft) SO 135 0 min 233 lux 2 W/m
06.11.2014 07:59 6,8 C 5,9 C 11,9 C 89 % 1010,0 hPa 0,0 l/m 0,0 km/h (0 Bft) SO 135 0 min 525 lux 4 W/m
06.11.2014 08:04 6,8 C 6,1 C 11,9 C 89 % 1010,0 hPa 0,0 l/m 0,0 km/h (0 Bft) SO 135 0 min 383 lux 3 W/m
06.11.2014 08:05 6,8 C 6,1 C 11,9 C 89 % 1010,0 hPa 0,0 l/m 0,0 km/h (0 Bft) SO 135 0 min 383 lux 3 W/m
06.11.2014 08:09 7,0 C 6,1 C 11,9 C 89 % 1010,0 hPa 0,0 l/m 0,1 km/h (0 Bft) O-SO 105 0 min 383 lux 3 W/m
06.11.2014 08:15 7,0 C 6,3 C 11,9 C 89 % 1010,0 hPa 0,0 l/m 0,1 km/h (0 Bft) O-SO 105 0 min 483 lux 3 W/m
06.11.2014 08:20 7,0 C 6,3 C 11,9 C 89 % 1010,0 hPa 0,0 l/m 0,1 km/h (0 Bft) O-SO 110 0 min 483 lux 3 W/m
06.11.2014 08:24 7,1 C 6,4 C 11,9 C 90 % 1010,0 hPa 0,0 l/m 0,1 km/h (0 Bft) O-SO 110 0 min 669 lux 5 W/m
06.11.2014 08:29 7,1 C 6,5 C 11,8 C 90 % 1010,0 hPa 0,0 l/m 0,1 km/h (0 Bft) O-SO 110 0 min 1,56 klux 11 W/m
06.11.2014 08:34 7,2 C 6,7 C 11,8 C 89 % 1010,0 hPa 0,0 l/m 0,1 km/h (0 Bft) O-SO 110 0 min 2,28 klux 16 W/m
06.11.2014 08:39 7,2 C 6,8 C 11,8 C 89 % 1010,0 hPa 0,0 l/m 0,1 km/h (0 Bft) O-SO 110 0 min 2,58 klux 18 W/m
06.11.2014 08:45 7,2 C 7,0 C 11,8 C 89 % 1010,0 hPa 0,0 l/m 0,1 km/h (0 Bft) O-SO 110 0 min 3,77 klux 26 W/m
06.11.2014 08:49 7,2 C 7,1 C 11,8 C 89 % 1010,0 hPa 0,0 l/m 0,1 km/h (0 Bft) O-SO 110 0 min 3,59 klux 25 W/m
06.11.2014 08:54 7,2 C 7,2 C 11,7 C 89 % 1011,0 hPa 0,0 l/m 4,4 km/h (1 Bft) S-SO 155 0 min 3,59 klux 25 W/m
06.11.2014 08:59 7,3 C 7,2 C 11,7 C 89 % 1011,0 hPa 0,0 l/m 4,4 km/h (1 Bft) S-SO 155 0 min 3,30 klux 23 W/m
06.11.2014 09:05 7,2 C 7,2 C 11,7 C 89 % 1011,0 hPa 0,0 l/m 4,4 km/h (1 Bft) S-SO 155 0 min 3,40 klux 23 W/m
06.11.2014 09:10 7,3 C 7,3 C 11,7 C 88 % 1011,0 hPa 0,0 l/m 4,4 km/h (1 Bft) S-SO 155 0 min 3,40 klux 23 W/m
06.11.2014 09:14 7,4 C 7,5 C 11,7 C 88 % 1011,0 hPa 0,0 l/m 4,4 km/h (1 Bft) S-SO 155 0 min 4,29 klux 29 W/m
06.11.2014 09:19 7,4 C 7,7 C 11,7 C 88 % 1011,0 hPa 0,0 l/m 4,4 km/h (1 Bft) S-SO 155 0 min 4,85 klux 33 W/m
06.11.2014 09:24 7,5 C 7,9 C 11,6 C 88 % 1011,0 hPa 0,0 l/m 4,4 km/h (1 Bft) S-SO 155 0 min 4,90 klux 34 W/m
06.11.2014 09:25 7,5 C 7,9 C 11,6 C 88 % 1011,0 hPa 0,0 l/m 4,4 km/h (1 Bft) S-SO 155 0 min 4,90 klux 34 W/m
06.11.2014 09:29 7,5 C 8,0 C 11,6 C 88 % 1011,0 hPa 0,0 l/m 4,4 km/h (1 Bft) S-SO 155 0 min 5,38 klux 37 W/m
06.11.2014 09:34 7,6 C 8,1 C 11,6 C 88 % 1011,0 hPa 0,0 l/m 4,4 km/h (1 Bft) S-SO 155 0 min 5,45 klux 37 W/m
06.11.2014 09:40 7,6 C 8,4 C 11,5 C 87 % 1011,0 hPa 0,0 l/m 4,4 km/h (1 Bft) S-SO 155 0 min 5,00 klux 34 W/m
06.11.2014 09:45 7,6 C 8,5 C 11,5 C 87 % 1011,0 hPa 0,0 l/m 4,4 km/h (1 Bft) S-SO 155 0 min 7,42 klux 51 W/m
06.11.2014 09:49 7,8 C 9,2 C 11,5 C 87 % 1011,0 hPa 0,0 l/m 4,4 km/h (1 Bft) S-SO 155 0 min 7,42 klux 51 W/m
06.11.2014 09:55 7,8 C 9,9 C 11,5 C 87 % 1011,0 hPa 0,0 l/m 4,4 km/h (1 Bft) S-SO 155 0 min 10,3 klux 70 W/m
06.11.2014 10:00 8,0 C 10,5 C 11,5 C 87 % 1011,0 hPa 0,0 l/m 4,4 km/h (1 Bft) S-SO 155 0 min 13,0 klux 89 W/m
06.11.2014 10:04 8,1 C 11,0 C 11,4 C 86 % 1011,0 hPa 0,0 l/m 4,4 km/h (1 Bft) S-SO 155 0 min 12,6 klux 86 W/m
06.11.2014 10:09 8,0 C 11,3 C 11,4 C 86 % 1011,0 hPa 0,0 l/m 4,4 km/h (1 Bft) S-SO 155 0 min 11,9 klux 81 W/m
06.11.2014 10:14 8,1 C 11,5 C 11,4 C 85 % 1011,0 hPa 0,0 l/m 4,4 km/h (1 Bft) S-SO 155 0 min 13,3 klux 91 W/m
06.11.2014 10:20 8,1 C 11,7 C 11,4 C 84 % 1011,0 hPa 0,0 l/m 4,4 km/h (1 Bft) S-SO 155 0 min 13,5 klux 92 W/m
06.11.2014 10:25 8,2 C 11,8 C 11,4 C 84 % 1011,0 hPa 0,0 l/m 4,4 km/h (1 Bft) S-SO 155 0 min 12,5 klux 86 W/m
06.11.2014 10:30 8,3 C 11,7 C 11,4 C 85 % 1011,0 hPa 0,0 l/m 4,4 km/h (1 Bft) S-SO 155 0 min 11,9 klux 81 W/m
06.11.2014 10:34 8,3 C 11,8 C 11,5 C 85 % 1011,0 hPa 0,0 l/m 4,4 km/h (1 Bft) S-SO 155 0 min 10,6 klux 73 W/m
06.11.2014 10:39 8,3 C 11,7 C 11,5 C 84 % 1011,0 hPa 0,0 l/m 4,4 km/h (1 Bft) S-SO 155 0 min 10,2 klux 70 W/m
06.11.2014 10:44 8,4 C 11,6 C 11,5 C 84 % 1011,0 hPa 0,0 l/m 4,4 km/h (1 Bft) S-SO 155 0 min 9,7 klux 66 W/m
06.11.2014 10:49 8,4 C 11,4 C 11,5 C 84 % 1011,0 hPa 0,0 l/m 4,4 km/h (1 Bft) S-SO 155 0 min 10,0 klux 68 W/m
06.11.2014 10:55 8,4 C 11,3 C 11,5 C 83 % 1011,0 hPa 0,0 l/m 12,9 km/h (3 Bft) S-SO22.5 165 0 min 11,0 klux 75 W/m
06.11.2014 11:00 8,4 C 11,3 C 11,5 C 83 % 1011,0 hPa 0,0 l/m 12,9 km/h (3 Bft) S-SO22.5 165 0 min 12,9 klux 88 W/m
06.11.2014 11:04 8,4 C 11,7 C 11,6 C 82 % 1011,0 hPa 0,0 l/m 12,9 km/h (3 Bft) S-SO22.5 165 0 min 14,3 klux 98 W/m
06.11.2014 11:09 8,6 C 11,7 C 11,6 C 82 % 1011,0 hPa 0,0 l/m 12,9 km/h (3 Bft) S-SO22.5 165 0 min 14,0 klux 96 W/m
06.11.2014 11:14 8,8 C 14,4 C 11,6 C 82 % 1011,0 hPa 0,0 l/m 12,9 km/h (3 Bft) S-SO22.5 165 5 min 37,0 klux 253 W/m
06.11.2014 11:19 9,4 C 18,1 C 11,6 C 83 % 1011,0 hPa 0,0 l/m 12,9 km/h (3 Bft) S-SO22.5 165 5 min 35,8 klux 245 W/m
06.11.2014 11:25 9,7 C 19,0 C 11,6 C 81 % 1011,0 hPa 0,0 l/m 12,9 km/h (3 Bft) S-SO22.5 165 6 min 37,6 klux 257 W/m
06.11.2014 11:30 9,7 C 19,2 C 11,6 C 78 % 1011,0 hPa 0,0 l/m 12,9 km/h (3 Bft) S-SO22.5 165 5 min 36,9 klux 252 W/m
06.11.2014 11:34 9,8 C 20,8 C 11,6 C 77 % 1011,0 hPa 0,0 l/m 11,6 km/h (2 Bft) S-SW45 195 4 min 38,1 klux 261 W/m
06.11.2014 11:39 9,8 C 20,5 C 11,6 C 77 % 1011,0 hPa 0,0 l/m 10,0 km/h (2 Bft) S45 190 5 min 39,1 klux 267 W/m
06.11.2014 11:44 10,1 C 21,3 C 11,6 C 75 % 1011,0 hPa 0,0 l/m 11,8 km/h (2 Bft) S-SW22.5 210 5 min 40,7 klux 278 W/m
06.11.2014 11:49 10,0 C 18,6 C 11,7 C 76 % 1011,0 hPa 0,0 l/m 11,8 km/h (2 Bft) S-SW22.5 210 0 min 15,5 klux 106 W/m
06.11.2014 11:54 9,8 C 17,9 C 11,7 C 75 % 1011,0 hPa 0,0 l/m 6,2 km/h (2 Bft) S-SW22.5 205 0 min 19,7 klux 135 W/m
06.11.2014 12:00 9,7 C 16,7 C 11,7 C 75 % 1011,0 hPa 0,0 l/m 6,2 km/h (2 Bft) S-SW22.5 205 0 min 13,9 klux 95 W/m
06.11.2014 12:04 9,7 C 15,2 C 11,7 C 76 % 1011,0 hPa 0,0 l/m 12,8 km/h (3 Bft) SW45 220 0 min 19,4 klux 133 W/m
06.11.2014 12:09 9,6 C 14,9 C 11,7 C 75 % 1011,0 hPa 0,0 l/m 10,0 km/h (2 Bft) SW22.5 215 0 min 22,0 klux 150 W/m
06.11.2014 12:14 9,9 C 17,1 C 11,7 C 75 % 1011,0 hPa 0,0 l/m 7,9 km/h (2 Bft) S-SW22.5 200 5 min 47,4 klux 324 W/m
06.11.2014 12:19 10,0 C 17,9 C 11,7 C 76 % 1011,0 hPa 0,0 l/m 7,9 km/h (2 Bft) S-SW22.5 200 0 min 15,6 klux 107 W/m
06.11.2014 12:25 9,9 C 14,8 C 11,7 C 75 % 1011,0 hPa 0,0 l/m 7,9 km/h (2 Bft) S-SW22.5 200 0 min 11,9 klux 81 W/m
06.11.2014 12:30 9,5 C 13,0 C 11,7 C 76 % 1011,0 hPa 0,0 l/m 17,1 km/h (3 Bft) SW22.5 230 0 min 12,4 klux 85 W/m
06.11.2014 12:34 9,5 C 12,8 C 11,7 C 75 % 1011,0 hPa 0,0 l/m 17,0 km/h (3 Bft) SW45 215 4 min 37,7 klux 258 W/m
06.11.2014 12:39 9,7 C 16,4 C 11,8 C 76 % 1010,0 hPa 0,0 l/m 13,5 km/h (3 Bft) SW22.5 225 5 min 44,3 klux 303 W/m
06.11.2014 12:44 10,1 C 20,0 C 11,8 C 75 % 1010,0 hPa 0,0 l/m 15,8 km/h (3 Bft) SW22.5 220 5 min 44,2 klux 302 W/m
06.11.2014 12:49 10,4 C 21,1 C 11,8 C 73 % 1010,0 hPa 0,0 l/m 15,8 km/h (3 Bft) SW22.5 220 5 min 39,1 klux 267 W/m
06.11.2014 12:54 10,4 C 21,2 C 11,8 C 73 % 1010,0 hPa 0,0 l/m 14,1 km/h (3 Bft) SW22.5 220 0 min 18,0 klux 123 W/m
06.11.2014 13:00 10,5 C 21,1 C 11,8 C 72 % 1010,0 hPa 0,0 l/m 13,0 km/h (3 Bft) S22.5 175 0 min 16,3 klux 111 W/m
06.11.2014 13:04 10,6 C 20,1 C 11,8 C 71 % 1010,0 hPa 0,0 l/m 12,6 km/h (3 Bft) S22.5 185 4 min 41,8 klux 286 W/m
06.11.2014 13:09 10,7 C 21,3 C 11,8 C 71 % 1010,0 hPa 0,0 l/m 12,6 km/h (3 Bft) S22.5 185 0 min 19,1 klux 131 W/m
06.11.2014 13:14 10,9 C 22,3 C 11,8 C 70 % 1010,0 hPa 0,0 l/m 16,6 km/h (3 Bft) S-SO22.5 165 0 min 19,1 klux 131 W/m
06.11.2014 13:19 11,1 C 21,9 C 11,8 C 70 % 1010,0 hPa 0,0 l/m 14,4 km/h (3 Bft) S22.5 180 0 min 19,1 klux 131 W/m
06.11.2014 13:24 11,0 C 20,3 C 11,8 C 70 % 1010,0 hPa 0,0 l/m 10,7 km/h (2 Bft) S22.5 185 0 min 12,2 klux 83 W/m
06.11.2014 13:30 10,7 C 17,8 C 11,9 C 70 % 1010,0 hPa 0,0 l/m 10,7 km/h (2 Bft) S22.5 185 0 min 12,2 klux 83 W/m
06.11.2014 13:35 10,4 C 16,0 C 11,9 C 70 % 1010,0 hPa 0,0 l/m 16,8 km/h (3 Bft) S45 175 0 min 8,97 klux 61 W/m
06.11.2014 13:39 10,3 C 15,2 C 11,9 C 71 % 1010,0 hPa 0,0 l/m 13,1 km/h (3 Bft) S-SO22.5 160 0 min 8,12 klux 56 W/m
06.11.2014 13:44 10,3 C 14,4 C 11,9 C 71 % 1010,0 hPa 0,0 l/m 14,0 km/h (3 Bft) S22.5 180 0 min 14,6 klux 100 W/m
06.11.2014 13:49 10,4 C 15,6 C 11,9 C 72 % 1010,0 hPa 0,0 l/m 12,5 km/h (2 Bft) S22.5 190 0 min 16,6 klux 114 W/m
06.11.2014 13:54 10,6 C 16,4 C 11,9 C 72 % 1010,0 hPa 0,0 l/m 14,1 km/h (3 Bft) S22.5 170 0 min 11,4 klux 78 W/m
06.11.2014 14:00 10,6 C 15,7 C 11,9 C 71 % 1010,0 hPa 0,0 l/m 11,6 km/h (2 Bft) S22.5 170 0 min 7,97 klux 55 W/m
06.11.2014 14:04 10,4 C 14,3 C 11,9 C 71 % 1010,0 hPa 0,0 l/m 12,7 km/h (3 Bft) S-SO22.5 160 0 min 7,00 klux 48 W/m
06.11.2014 14:09 10,4 C 13,3 C 11,9 C 71 % 1010,0 hPa 0,0 l/m 16,6 km/h (3 Bft) S-SO22.5 165 0 min 7,00 klux 48 W/m
06.11.2014 14:14 10,4 C 13,1 C 11,9 C 72 % 1010,0 hPa 0,0 l/m 9,0 km/h (2 Bft) S22.5 185 0 min 8,32 klux 57 W/m
06.11.2014 14:19 10,4 C 12,8 C 11,8 C 72 % 1010,0 hPa 0,0 l/m 13,9 km/h (3 Bft) S22.5 185 0 min 4,41 klux 30 W/m
06.11.2014 14:24 10,4 C 12,1 C 11,8 C 73 % 1010,0 hPa 0,0 l/m 10,8 km/h (2 Bft) S-SW22.5 195 0 min 3,62 klux 25 W/m
06.11.2014 14:30 10,3 C 11,8 C 11,8 C 74 % 1010,0 hPa 0,0 l/m 10,8 km/h (2 Bft) S-SW22.5 195 0 min 4,07 klux 28 W/m
06.11.2014 14:35 10,2 C 11,6 C 11,8 C 73 % 1010,0 hPa 0,0 l/m 14,0 km/h (3 Bft) S45 190 0 min 7,10 klux 49 W/m
06.11.2014 14:39 10,2 C 11,6 C 11,8 C 73 % 1010,0 hPa 0,0 l/m 14,6 km/h (3 Bft) S-SW45 205 0 min 6,61 klux 45 W/m
06.11.2014 14:44 10,2 C 11,7 C 11,8 C 74 % 1010,0 hPa 0,0 l/m 13,5 km/h (3 Bft) SW22.5 215 0 min 7,60 klux 52 W/m
06.11.2014 14:49 10,3 C 12,2 C 11,8 C 74 % 1010,0 hPa 0,0 l/m 10,9 km/h (2 Bft) SW45 215 0 min 10,0 klux 68 W/m
06.11.2014 14:54 10,4 C 12,4 C 11,8 C 75 % 1010,0 hPa 0,0 l/m 14,0 km/h (3 Bft) SW22.5 215 0 min 9,5 klux 65 W/m
06.11.2014 14:59 10,2 C 12,3 C 11,8 C 75 % 1010,0 hPa 0,0 l/m 12,4 km/h (2 Bft) SW45 215 0 min 9,4 klux 64 W/m
06.11.2014 15:04 10,2 C 12,2 C 11,7 C 75 % 1010,0 hPa 0,0 l/m 15,6 km/h (3 Bft) SW45 220 0 min 8,48 klux 58 W/m
06.11.2014 15:09 10,2 C 11,8 C 11,7 C 75 % 1010,0 hPa 0,0 l/m 17,3 km/h (3 Bft) SW22.5 220 0 min 7,83 klux 54 W/m
06.11.2014 15:14 10,1 C 11,7 C 11,7 C 75 % 1010,0 hPa 0,0 l/m 17,2 km/h (3 Bft) SW45 225 0 min 7,27 klux 50 W/m
06.11.2014 15:19 10,1 C 11,4 C 11,7 C 75 % 1010,0 hPa 0,0 l/m 17,5 km/h (3 Bft) S-SW45 205 0 min 6,42 klux 44 W/m
06.11.2014 15:24 10,0 C 11,3 C 11,7 C 75 % 1010,0 hPa 0,0 l/m 15,8 km/h (3 Bft) SW45 215 0 min 5,82 klux 40 W/m
06.11.2014 15:30 10,0 C 11,9 C 11,7 C 74 % 1010,0 hPa 0,0 l/m 15,8 km/h (3 Bft) SW45 215 0 min 7,98 klux 55 W/m
06.11.2014 15:35 10,1 C 11,9 C 11,7 C 74 % 1010,0 hPa 0,0 l/m 15,8 km/h (3 Bft) S-SW22.5 205 0 min 7,60 klux 52 W/m
06.11.2014 15:39 10,1 C 11,8 C 11,7 C 74 % 1010,0 hPa 0,0 l/m 14,5 km/h (3 Bft) SW22.5 215 0 min 4,92 klux 34 W/m
06.11.2014 15:44 10,2 C 11,3 C 11,6 C 74 % 1010,0 hPa 0,0 l/m 15,4 km/h (3 Bft) S-SW45 205 0 min 3,12 klux 21 W/m
06.11.2014 15:49 10,1 C 10,8 C 11,6 C 74 % 1010,0 hPa 0,0 l/m 18,4 km/h (3 Bft) SW22.5 215 0 min 3,45 klux 24 W/m
06.11.2014 15:54 10,0 C 10,7 C 11,6 C 74 % 1010,0 hPa 0,0 l/m 19,0 km/h (3 Bft) SW22.5 215 0 min 3,99 klux 27 W/m
06.11.2014 15:59 10,0 C 10,6 C 11,6 C 74 % 1011,0 hPa 0,0 l/m 24,6 km/h (4 Bft) SW22.5 215 0 min 5,15 klux 35 W/m
06.11.2014 16:05 9,6 C 9,7 C 11,6 C 76 % 1011,0 hPa 0,0 l/m 28,6 km/h (5 Bft) SW45 220 0 min 3,08 klux 21 W/m
06.11.2014 16:09 9,4 C 9,3 C 11,5 C 76 % 1011,0 hPa 0,0 l/m 23,7 km/h (4 Bft) SW22.5 230 0 min 1,92 klux 13 W/m
06.11.2014 16:14 9,2 C 9,1 C 11,5 C 78 % 1011,0 hPa 0,0 l/m 21,3 km/h (4 Bft) SW45 220 0 min 1,96 klux 13 W/m
06.11.2014 16:19 9,2 C 8,9 C 11,5 C 78 % 1010,0 hPa 0,0 l/m 21,8 km/h (4 Bft) S-SW67.5 210 0 min 2,06 klux 14 W/m
06.11.2014 16:24 9,2 C 8,5 C 11,4 C 78 % 1011,0 hPa 0,0 l/m 21,8 km/h (4 Bft) S-SW67.5 210 0 min 1,39 klux 10 W/m
06.11.2014 16:30 9,1 C 8,4 C 11,4 C 78 % 1011,0 hPa 0,0 l/m 21,5 km/h (4 Bft) SW22.5 215 0 min 535 lux 4 W/m
06.11.2014 16:35 9,0 C 8,4 C 11,4 C 79 % 1011,0 hPa 0,0 l/m 13,6 km/h (3 Bft) SW45 215 0 min 464 lux 3 W/m
06.11.2014 16:34 9,0 C 8,4 C 11,4 C 79 % 1011,0 hPa 0,0 l/m 13,6 km/h (3 Bft) SW45 215 0 min 464 lux 3 W/m
06.11.2014 16:40 8,9 C 8,2 C 11,3 C 79 % 1011,0 hPa 0,0 l/m 16,6 km/h (3 Bft) S-SW45 210 0 min 925 lux 6 W/m
06.11.2014 16:45 8,9 C 8,0 C 11,3 C 80 % 1010,0 hPa 0,0 l/m 13,1 km/h (3 Bft) S-SW22.5 195 0 min 538 lux 4 W/m
06.11.2014 16:50 8,8 C 7,8 C 11,3 C 80 % 1010,0 hPa 0,0 l/m 15,1 km/h (3 Bft) S-SW22.5 205 0 min 246 lux 2 W/m
06.11.2014 16:54 8,8 C 7,7 C 11,3 C 80 % 1010,0 hPa 0,0 l/m 15,3 km/h (3 Bft) S22.5 185 0 min 166 lux 0 W/m
06.11.2014 16:59 8,8 C 7,6 C 11,3 C 80 % 1011,0 hPa 0,0 l/m 15,3 km/h (3 Bft) S22.5 185 0 min 79 lux 0 W/m
06.11.2014 17:04 8,8 C 7,6 C 11,2 C 80 % 1011,0 hPa 0,0 l/m 15,7 km/h (3 Bft) S45 185 0 min 55 lux 0 W/m
06.11.2014 17:10 8,8 C 7,5 C 11,2 C 80 % 1011,0 hPa 0,0 l/m 18,7 km/h (3 Bft) S22.5 190 0 min 50 lux 0 W/m
06.11.2014 17:15 8,8 C 7,6 C 11,3 C 80 % 1010,0 hPa 0,0 l/m 18,7 km/h (3 Bft) S22.5 190 0 min 33 lux 0 W/m
06.11.2014 17:19 8,8 C 7,6 C 11,3 C 80 % 1010,0 hPa 0,0 l/m 22,6 km/h (4 Bft) S-SW45 200 0 min 11 lux 0 W/m
06.11.2014 17:24 8,7 C 7,5 C 11,3 C 82 % 1011,0 hPa 0,0 l/m 17,2 km/h (3 Bft) S-SW45 210 0 min 5 lux 0 W/m
06.11.2014 17:29 8,6 C 7,4 C 11,3 C 82 % 1011,0 hPa 0,0 l/m 18,2 km/h (3 Bft) S-SW22.5 205 0 min 5 lux 0 W/m
06.11.2014 17:34 8,5 C 7,3 C 11,4 C 82 % 1011,0 hPa 0,0 l/m 16,7 km/h (3 Bft) S-SW45 205 0 min 0 lux 0 W/m
06.11.2014 17:39 8,4 C 7,3 C 11,4 C 83 % 1011,0 hPa 0,0 l/m 16,7 km/h (3 Bft) S-SW45 205 0 min 0 lux 0 W/m
06.11.2014 17:45 8,4 C 7,3 C 11,4 C 83 % 1011,0 hPa 0,0 l/m 12,8 km/h (3 Bft) S-SW45 195 0 min 0 lux 0 W/m
06.11.2014 17:50 8,4 C 7,3 C 11,4 C 83 % 1011,0 hPa 0,0 l/m 14,2 km/h (3 Bft) S-SW45 200 0 min 0 lux 0 W/m
06.11.2014 17:54 8,5 C 7,4 C 11,4 C 83 % 1011,0 hPa 0,0 l/m 17,5 km/h (3 Bft) S-SW45 205 0 min 0 lux 0 W/m
06.11.2014 17:59 8,5 C 7,4 C 11,5 C 83 % 1011,0 hPa 0,0 l/m 14,7 km/h (3 Bft) S-SW22.5 205 0 min 0 lux 0 W/m
06.11.2014 18:04 8,5 C 7,4 C 11,5 C 83 % 1011,0 hPa 0,0 l/m 15,6 km/h (3 Bft) S-SW22.5 195 0 min 0 lux 0 W/m
06.11.2014 18:10 8,5 C 7,4 C 11,5 C 83 % 1011,0 hPa 0,0 l/m 16,2 km/h (3 Bft) S-SW45 200 0 min 0 lux 0 W/m
06.11.2014 18:15 8,5 C 7,4 C 11,5 C 82 % 1011,0 hPa 0,0 l/m 19,6 km/h (3 Bft) S-SW45 200 0 min 0 lux 0 W/m
06.11.2014 18:19 8,5 C 7,3 C 11,5 C 82 % 1011,0 hPa 0,0 l/m 17,9 km/h (3 Bft) S-SW22.5 200 0 min 0 lux 0 W/m
06.11.2014 18:24 8,4 C 7,3 C 11,5 C 82 % 1011,0 hPa 0,0 l/m 16,8 km/h (3 Bft) S-SW45 200 0 min 0 lux 0 W/m
06.11.2014 18:29 8,4 C 7,2 C 11,5 C 83 % 1011,0 hPa 0,0 l/m 23,1 km/h (4 Bft) S-SW45 205 0 min 0 lux 0 W/m
06.11.2014 18:34 8,3 C 7,2 C 11,6 C 83 % 1011,0 hPa 0,0 l/m 13,6 km/h (3 Bft) S-SW45 195 0 min 0 lux 0 W/m
06.11.2014 18:39 8,3 C 7,1 C 11,5 C 83 % 1011,0 hPa 0,0 l/m 14,3 km/h (3 Bft) S45 190 0 min 0 lux 0 W/m
06.11.2014 18:45 8,4 C 7,2 C 11,5 C 84 % 1011,0 hPa 0,0 l/m 14,3 km/h (3 Bft) S45 190 0 min 0 lux 0 W/m
06.11.2014 18:50 8,4 C 7,2 C 11,6 C 84 % 1011,0 hPa 0,0 l/m 11,6 km/h (2 Bft) S22.5 175 0 min 0 lux 0 W/m
06.11.2014 18:54 8,4 C 7,2 C 11,6 C 84 % 1011,0 hPa 0,0 l/m 9,0 km/h (2 Bft) S22.5 175 0 min 0 lux 0 W/m
06.11.2014 18:59 8,4 C 7,2 C 11,6 C 84 % 1011,0 hPa 0,0 l/m 9,0 km/h (2 Bft) S22.5 175 0 min 0 lux 0 W/m
06.11.2014 19:04 8,4 C 7,2 C 11,6 C 84 % 1011,0 hPa 0,0 l/m 13,0 km/h (3 Bft) S45 185 0 min 0 lux 0 W/m
06.11.2014 19:10 8,4 C 7,2 C 11,6 C 84 % 1011,0 hPa 0,0 l/m 14,7 km/h (3 Bft) S22.5 180 0 min 0 lux 0 W/m
06.11.2014 19:15 8,4 C 7,2 C 11,6 C 84 % 1011,0 hPa 0,0 l/m 10,8 km/h (2 Bft) S22.5 175 0 min 0 lux 0 W/m
06.11.2014 19:19 8,4 C 7,1 C 11,6 C 83 % 1011,0 hPa 0,0 l/m 11,1 km/h (2 Bft) S-SO22.5 165 0 min 0 lux 0 W/m
06.11.2014 19:24 8,4 C 7,1 C 11,6 C 83 % 1011,0 hPa 0,0 l/m 14,7 km/h (3 Bft) S22.5 180 0 min 0 lux 0 W/m
06.11.2014 19:29 8,4 C 7,1 C 11,6 C 82 % 1011,0 hPa 0,0 l/m 12,6 km/h (3 Bft) S22.5 185 0 min 0 lux 0 W/m
06.11.2014 19:34 8,5 C 7,1 C 11,6 C 82 % 1011,0 hPa 0,0 l/m 15,3 km/h (3 Bft) S45 170 0 min 0 lux 0 W/m
06.11.2014 19:39 8,5 C 7,0 C 11,6 C 81 % 1011,0 hPa 0,0 l/m 13,1 km/h (3 Bft) S45 180 0 min 0 lux 0 W/m
06.11.2014 19:45 8,5 C 6,9 C 11,6 C 81 % 1011,0 hPa 0,0 l/m 13,1 km/h (3 Bft) S45 180 0 min 0 lux 0 W/m
06.11.2014 19:50 8,5 C 6,8 C 11,7 C 81 % 1011,0 hPa 0,0 l/m 13,1 km/h (3 Bft) S45 180 0 min 0 lux 0 W/m
06.11.2014 19:54 8,5 C 6,7 C 11,6 C 80 % 1011,0 hPa 0,0 l/m 13,1 km/h (3 Bft) S45 180 0 min 0 lux 0 W/m
06.11.2014 19:59 8,5 C 6,7 C 11,6 C 80 % 1011,0 hPa 0,4 l/m 12,8 km/h (3 Bft) S22.5 180 0 min 0 lux 0 W/m
06.11.2014 20:04 8,4 C 6,7 C 11,6 C 80 % 1011,0 hPa 0,0 l/m 14,6 km/h (3 Bft) S22.5 180 0 min 0 lux 0 W/m
06.11.2014 20:10 8,4 C 6,6 C 11,6 C 77 % 1011,0 hPa 0,0 l/m 14,6 km/h (3 Bft) S22.5 180 0 min 0 lux 0 W/m
06.11.2014 20:15 8,4 C 6,6 C 11,6 C 77 % 1011,0 hPa 0,0 l/m 14,1 km/h (3 Bft) S22.5 190 0 min 0 lux 0 W/m
06.11.2014 20:20 8,4 C 6,5 C 11,6 C 76 % 1011,0 hPa 0,0 l/m 17,8 km/h (3 Bft) S-SW22.5 195 0 min 0 lux 0 W/m
06.11.2014 20:24 8,4 C 6,3 C 11,6 C 76 % 1011,0 hPa 0,0 l/m 17,1 km/h (3 Bft) S22.5 185 0 min 0 lux 0 W/m
06.11.2014 20:29 8,3 C 6,0 C 11,6 C 77 % 1011,0 hPa 0,0 l/m 12,8 km/h (3 Bft) S22.5 185 0 min 0 lux 0 W/m
06.11.2014 20:34 8,3 C 5,8 C 11,6 C 77 % 1011,0 hPa 0,0 l/m 12,8 km/h (3 Bft) S22.5 185 0 min 0 lux 0 W/m
06.11.2014 20:39 8,2 C 5,5 C 11,6 C 77 % 1011,0 hPa 0,0 l/m 13,3 km/h (3 Bft) S45 180 0 min 0 lux 0 W/m
06.11.2014 20:45 8,0 C 5,0 C 11,6 C 77 % 1011,0 hPa 0,0 l/m 13,7 km/h (3 Bft) S22.5 180 0 min 0 lux 0 W/m
06.11.2014 20:50 8,0 C 4,5 C 11,6 C 77 % 1011,0 hPa 0,0 l/m 12,0 km/h (2 Bft) S22.5 180 0 min 0 lux 0 W/m
06.11.2014 20:54 7,9 C 4,4 C 11,6 C 77 % 1011,0 hPa 0,0 l/m 12,0 km/h (2 Bft) S22.5 180 0 min 0 lux 0 W/m
06.11.2014 20:59 7,9 C 4,5 C 11,6 C 77 % 1011,0 hPa 0,0 l/m 13,4 km/h (3 Bft) S22.5 170 0 min 0 lux 0 W/m
06.11.2014 21:04 7,6 C 4,7 C 11,6 C 78 % 1011,0 hPa 0,0 l/m 12,4 km/h (2 Bft) S22.5 170 0 min 0 lux 0 W/m
06.11.2014 21:09 7,6 C 5,1 C 11,5 C 78 % 1011,0 hPa 0,0 l/m 12,4 km/h (2 Bft) S22.5 170 0 min 0 lux 0 W/m
06.11.2014 21:15 7,6 C 5,1 C 11,5 C 78 % 1011,0 hPa 0,0 l/m 12,4 km/h (2 Bft) S-SO22.5 165 0 min 0 lux 0 W/m
06.11.2014 21:20 7,6 C 4,6 C 11,5 C 78 % 1011,0 hPa 0,0 l/m 13,0 km/h (3 Bft) S22.5 180 0 min 0 lux 0 W/m
06.11.2014 21:24 7,4 C 4,4 C 11,5 C 78 % 1011,0 hPa 0,0 l/m 13,0 km/h (3 Bft) S22.5 180 0 min 0 lux 0 W/m
06.11.2014 21:29 7,3 C 4,0 C 11,5 C 78 % 1011,0 hPa 0,0 l/m 14,4 km/h (3 Bft) S22.5 170 0 min 0 lux 0 W/m
06.11.2014 21:34 7,2 C 3,9 C 11,5 C 78 % 1011,0 hPa 0,0 l/m 13,8 km/h (3 Bft) S22.5 175 0 min 0 lux 0 W/m
06.11.2014 21:39 7,2 C 3,8 C 11,5 C 78 % 1011,0 hPa 0,0 l/m 11,1 km/h (2 Bft) S22.5 170 0 min 0 lux 0 W/m
06.11.2014 21:45 7,2 C 3,7 C 11,5 C 78 % 1011,0 hPa 0,0 l/m 11,1 km/h (2 Bft) S22.5 170 0 min 0 lux 0 W/m
06.11.2014 21:50 7,0 C 3,7 C 11,4 C 79 % 1011,0 hPa 0,0 l/m 11,1 km/h (2 Bft) S 180 0 min 0 lux 0 W/m
06.11.2014 21:54 7,0 C 4,1 C 11,4 C 79 % 1011,0 hPa 0,0 l/m 13,0 km/h (3 Bft) S22.5 175 0 min 0 lux 0 W/m
06.11.2014 21:59 7,0 C 4,4 C 11,4 C 79 % 1011,0 hPa 0,0 l/m 13,0 km/h (3 Bft) S22.5 175 0 min 0 lux 0 W/m
06.11.2014 22:04 7,1 C 4,6 C 11,4 C 79 % 1011,0 hPa 0,0 l/m 13,0 km/h (3 Bft) S22.5 175 0 min 0 lux 0 W/m
06.11.2014 22:09 7,1 C 4,1 C 11,4 C 79 % 1011,0 hPa 0,0 l/m 13,1 km/h (3 Bft) S22.5 170 0 min 0 lux 0 W/m
06.11.2014 22:15 7,0 C 3,8 C 11,4 C 79 % 1011,0 hPa 0,0 l/m 12,9 km/h (3 Bft) S-SO22.5 160 0 min 0 lux 0 W/m
06.11.2014 22:20 6,9 C 3,5 C 11,4 C 79 % 1011,0 hPa 0,0 l/m 15,4 km/h (3 Bft) S-SO22.5 160 0 min 0 lux 0 W/m
06.11.2014 22:24 6,9 C 3,3 C 11,4 C 79 % 1011,0 hPa 0,0 l/m 14,4 km/h (3 Bft) S-SO22.5 160 0 min 0 lux 0 W/m
06.11.2014 22:29 6,7 C 3,1 C 11,3 C 79 % 1011,0 hPa 0,0 l/m 14,4 km/h (3 Bft) S-SO22.5 160 0 min 0 lux 0 W/m
06.11.2014 22:34 6,6 C 3,0 C 11,3 C 79 % 1011,0 hPa 0,0 l/m 18,3 km/h (3 Bft) S-SO22.5 160 0 min 0 lux 0 W/m
06.11.2014 22:39 6,6 C 3,0 C 11,3 C 79 % 1011,0 hPa 0,0 l/m 15,7 km/h (3 Bft) S22.5 170 0 min 0 lux 0 W/m
06.11.2014 22:45 6,5 C 2,8 C 11,3 C 80 % 1010,0 hPa 0,0 l/m 11,8 km/h (2 Bft) S-SO22.5 165 0 min 0 lux 0 W/m
06.11.2014 22:50 6,4 C 2,8 C 11,3 C 80 % 1010,0 hPa 0,0 l/m 13,4 km/h (3 Bft) S-SO22.5 160 0 min 0 lux 0 W/m
06.11.2014 22:54 6,3 C 2,7 C 11,3 C 80 % 1010,0 hPa 0,0 l/m 15,4 km/h (3 Bft) S-SO22.5 165 0 min 0 lux 0 W/m
06.11.2014 22:59 6,3 C 2,8 C 11,3 C 81 % 1010,0 hPa 0,0 l/m 18,5 km/h (3 Bft) S-SO22.5 165 0 min 0 lux 0 W/m
06.11.2014 23:04 6,3 C 2,8 C 11,2 C 81 % 1010,0 hPa 0,0 l/m 17,9 km/h (3 Bft) S-SO22.5 165 0 min 0 lux 0 W/m
06.11.2014 23:09 6,2 C 2,8 C 11,2 C 81 % 1010,1 hPa 0,0 l/m 17,9 km/h (3 Bft) S-SO22.5 165 0 min 0 lux 0 W/m
06.11.2014 23:15 6,2 C 2,5 C 11,2 C 81 % 1010,1 hPa 0,0 l/m 11,4 km/h (2 Bft) S-SO22.5 160 0 min 0 lux 0 W/m
06.11.2014 23:20 6,1 C 2,6 C 11,2 C 82 % 1010,1 hPa 0,0 l/m 17,0 km/h (3 Bft) S-SO22.5 160 0 min 0 lux 0 W/m
06.11.2014 23:24 6,1 C 2,5 C 11,2 C 82 % 1010,1 hPa 0,0 l/m 12,9 km/h (3 Bft) S-SO22.5 165 0 min 0 lux 0 W/m
06.11.2014 23:29 6,0 C 2,6 C 11,2 C 82 % 1010,1 hPa 0,0 l/m 12,9 km/h (3 Bft) S-SO22.5 165 0 min 0 lux 0 W/m
06.11.2014 23:34 6,0 C 2,6 C 11,2 C 82 % 1010,1 hPa 0,0 l/m 15,7 km/h (3 Bft) S-SO45 160 0 min 0 lux 0 W/m
06.11.2014 23:39 6,0 C 2,5 C 11,2 C 82 % 1010,1 hPa 0,0 l/m 15,7 km/h (3 Bft) S-SO45 160 0 min 0 lux 0 W/m
06.11.2014 23:45 5,9 C 2,4 C 11,2 C 82 % 1010,1 hPa 0,0 l/m 17,8 km/h (3 Bft) S-SO22.5 165 0 min 0 lux 0 W/m
06.11.2014 23:50 5,9 C 2,4 C 11,2 C 82 % 1010,1 hPa 0,0 l/m 12,7 km/h (3 Bft) S22.5 170 0 min 0 lux 0 W/m
06.11.2014 23:55 5,9 C 2,4 C 11,2 C 83 % 1010,1 hPa 0,0 l/m 15,2 km/h (3 Bft) S45 170 0 min 0 lux 0 W/m
06.11.2014 23:59 5,9 C 2,2 C 11,2 C 83 % 1010,1 hPa 0,0 l/m 16,3 km/h (3 Bft) S22.5 170 0 min 0 lux 0 W/m
_ Min-Zeit 04:09 03:40 17:04 13:14 00:04 - 01:09 - - - - -
Minimum _ 4,9 C 1,2 C 11,2 C 70 % 1007,0 hPa - 0,0 km/h (0 Bft) - - - - -
_ Max-Zeit 13:19 13:14 00:04 07:10 22:34 19:59 16:05 - - 11:25 12:14 12:14
Maximum _ 11,1 C 22,3 C 12,8 C 90 % 1011,0 hPa 0,4 l/m 28,6 km/h
SW (5 Bft)
- - 6 min 47,4 klux 324 W/m
Durchschnitt _ 7,8 C 7,5 C 11,8 C 82 % 1009,9 hPa #0,4 l/m 8,6 km/h (2 Bft) S - #1:03 h 4,38 klux 78 W/m